sensor_id;sensor_type;location;lat;lon;timestamp;P1;durP1;ratioP1;P2;durP2;ratioP2
9900;SDS011;4989;48.772;9.154;2023-03-08T00:04:02;4.60;;;3.40;;
9900;SDS011;4989;48.772;9.154;2023-03-08T00:09:04;6.73;;;4.30;;
9900;SDS011;4989;48.772;9.154;2023-03-08T00:14:07;8.73;;;4.10;;
9900;SDS011;4989;48.772;9.154;2023-03-08T00:19:10;8.97;;;3.90;;
9900;SDS011;4989;48.772;9.154;2023-03-08T00:24:13;5.40;;;3.63;;
9900;SDS011;4989;48.772;9.154;2023-03-08T00:29:17;4.73;;;3.00;;
9900;SDS011;4989;48.772;9.154;2023-03-08T00:34:20;7.53;;;3.60;;
9900;SDS011;4989;48.772;9.154;2023-03-08T00:39:22;5.50;;;3.60;;
9900;SDS011;4989;48.772;9.154;2023-03-08T00:44:25;5.47;;;4.00;;
9900;SDS011;4989;48.772;9.154;2023-03-08T00:49:28;5.30;;;3.93;;
9900;SDS011;4989;48.772;9.154;2023-03-08T00:54:31;5.60;;;3.33;;
9900;SDS011;4989;48.772;9.154;2023-03-08T00:59:34;4.93;;;3.87;;
9900;SDS011;4989;48.772;9.154;2023-03-08T01:04:38;4.57;;;3.70;;
9900;SDS011;4989;48.772;9.154;2023-03-08T01:09:40;6.73;;;4.07;;
9900;SDS011;4989;48.772;9.154;2023-03-08T01:14:43;6.17;;;4.30;;
9900;SDS011;4989;48.772;9.154;2023-03-08T01:19:47;7.80;;;4.03;;
9900;SDS011;4989;48.772;9.154;2023-03-08T01:24:51;6.30;;;4.03;;
9900;SDS011;4989;48.772;9.154;2023-03-08T01:29:53;7.00;;;4.97;;
9900;SDS011;4989;48.772;9.154;2023-03-08T01:34:57;5.90;;;4.17;;
9900;SDS011;4989;48.772;9.154;2023-03-08T01:40:05;5.10;;;4.07;;
9900;SDS011;4989;48.772;9.154;2023-03-08T01:50:49;6.70;;;4.43;;
9900;SDS011;4989;48.772;9.154;2023-03-08T01:55:51;6.23;;;4.63;;
9900;SDS011;4989;48.772;9.154;2023-03-08T02:00:54;5.83;;;3.53;;
9900;SDS011;4989;48.772;9.154;2023-03-08T02:05:57;5.57;;;3.90;;
9900;SDS011;4989;48.772;9.154;2023-03-08T02:10:59;6.43;;;3.97;;
9900;SDS011;4989;48.772;9.154;2023-03-08T02:16:03;7.50;;;4.57;;
9900;SDS011;4989;48.772;9.154;2023-03-08T02:21:10;6.20;;;4.20;;
9900;SDS011;4989;48.772;9.154;2023-03-08T02:26:13;8.00;;;3.93;;
9900;SDS011;4989;48.772;9.154;2023-03-08T02:31:16;6.20;;;4.47;;
9900;SDS011;4989;48.772;9.154;2023-03-08T02:36:18;6.77;;;4.33;;
9900;SDS011;4989;48.772;9.154;2023-03-08T02:41:23;5.93;;;4.03;;
9900;SDS011;4989;48.772;9.154;2023-03-08T02:46:25;6.37;;;4.40;;
9900;SDS011;4989;48.772;9.154;2023-03-08T02:51:30;7.47;;;4.17;;
9900;SDS011;4989;48.772;9.154;2023-03-08T02:56:33;7.23;;;4.23;;
9900;SDS011;4989;48.772;9.154;2023-03-08T03:01:38;7.60;;;4.53;;
9900;SDS011;4989;48.772;9.154;2023-03-08T03:06:40;6.57;;;4.33;;
9900;SDS011;4989;48.772;9.154;2023-03-08T03:11:45;6.47;;;4.37;;
9900;SDS011;4989;48.772;9.154;2023-03-08T03:16:48;5.80;;;4.30;;
9900;SDS011;4989;48.772;9.154;2023-03-08T03:21:50;8.17;;;4.67;;
9900;SDS011;4989;48.772;9.154;2023-03-08T03:26:53;7.00;;;4.57;;
9900;SDS011;4989;48.772;9.154;2023-03-08T03:31:58;7.57;;;4.63;;
9900;SDS011;4989;48.772;9.154;2023-03-08T03:37:01;5.43;;;3.90;;
9900;SDS011;4989;48.772;9.154;2023-03-08T03:42:07;6.43;;;4.43;;
9900;SDS011;4989;48.772;9.154;2023-03-08T03:47:15;6.30;;;4.70;;
9900;SDS011;4989;48.772;9.154;2023-03-08T03:52:19;6.63;;;4.13;;
9900;SDS011;4989;48.772;9.154;2023-03-08T03:57:30;8.33;;;4.63;;
9900;SDS011;4989;48.772;9.154;2023-03-08T04:02:33;4.40;;;3.47;;
9900;SDS011;4989;48.772;9.154;2023-03-08T04:07:36;6.97;;;4.17;;
9900;SDS011;4989;48.772;9.154;2023-03-08T04:12:40;6.67;;;3.97;;
9900;SDS011;4989;48.772;9.154;2023-03-08T04:17:43;7.47;;;4.10;;
9900;SDS011;4989;48.772;9.154;2023-03-08T04:22:47;8.50;;;4.57;;
9900;SDS011;4989;48.772;9.154;2023-03-08T04:27:56;6.97;;;4.17;;
9900;SDS011;4989;48.772;9.154;2023-03-08T04:32:59;6.30;;;3.97;;
9900;SDS011;4989;48.772;9.154;2023-03-08T04:38:10;7.43;;;4.77;;
9900;SDS011;4989;48.772;9.154;2023-03-08T04:43:13;6.77;;;4.20;;
9900;SDS011;4989;48.772;9.154;2023-03-08T04:48:16;8.93;;;4.77;;
9900;SDS011;4989;48.772;9.154;2023-03-08T04:53:20;6.27;;;4.97;;
9900;SDS011;4989;48.772;9.154;2023-03-08T04:58:24;6.57;;;4.50;;
9900;SDS011;4989;48.772;9.154;2023-03-08T05:03:27;7.40;;;4.60;;
9900;SDS011;4989;48.772;9.154;2023-03-08T05:08:29;7.33;;;4.13;;
9900;SDS011;4989;48.772;9.154;2023-03-08T05:13:33;6.70;;;4.33;;
9900;SDS011;4989;48.772;9.154;2023-03-08T05:18:38;8.50;;;5.13;;
9900;SDS011;4989;48.772;9.154;2023-03-08T05:23:42;9.00;;;4.47;;
9900;SDS011;4989;48.772;9.154;2023-03-08T05:28:47;8.47;;;5.13;;
9900;SDS011;4989;48.772;9.154;2023-03-08T05:33:51;6.97;;;4.70;;
9900;SDS011;4989;48.772;9.154;2023-03-08T05:39:04;8.77;;;4.57;;
9900;SDS011;4989;48.772;9.154;2023-03-08T05:44:20;7.03;;;5.03;;
9900;SDS011;4989;48.772;9.154;2023-03-08T05:49:23;7.10;;;4.43;;
9900;SDS011;4989;48.772;9.154;2023-03-08T05:54:26;7.60;;;4.70;;
9900;SDS011;4989;48.772;9.154;2023-03-08T05:59:32;9.53;;;5.40;;
9900;SDS011;4989;48.772;9.154;2023-03-08T06:04:37;7.33;;;4.83;;
9900;SDS011;4989;48.772;9.154;2023-03-08T06:09:40;7.70;;;5.33;;
9900;SDS011;4989;48.772;9.154;2023-03-08T06:14:47;8.77;;;5.80;;
9900;SDS011;4989;48.772;9.154;2023-03-08T06:19:52;9.20;;;5.67;;
9900;SDS011;4989;48.772;9.154;2023-03-08T06:24:56;7.77;;;5.27;;
9900;SDS011;4989;48.772;9.154;2023-03-08T06:30:04;11.13;;;6.00;;
9900;SDS011;4989;48.772;9.154;2023-03-08T06:35:08;11.10;;;6.17;;
9900;SDS011;4989;48.772;9.154;2023-03-08T06:40:17;10.20;;;6.27;;
9900;SDS011;4989;48.772;9.154;2023-03-08T06:45:21;10.33;;;5.97;;
9900;SDS011;4989;48.772;9.154;2023-03-08T06:50:24;10.87;;;6.67;;
9900;SDS011;4989;48.772;9.154;2023-03-08T06:55:27;12.10;;;7.13;;
9900;SDS011;4989;48.772;9.154;2023-03-08T07:00:29;13.27;;;6.97;;
9900;SDS011;4989;48.772;9.154;2023-03-08T07:05:32;10.37;;;6.90;;
9900;SDS011;4989;48.772;9.154;2023-03-08T07:10:35;13.10;;;7.13;;
9900;SDS011;4989;48.772;9.154;2023-03-08T07:15:39;10.10;;;7.00;;
9900;SDS011;4989;48.772;9.154;2023-03-08T07:20:41;11.30;;;7.00;;
9900;SDS011;4989;48.772;9.154;2023-03-08T07:25:49;11.37;;;6.97;;
9900;SDS011;4989;48.772;9.154;2023-03-08T07:30:53;12.03;;;7.37;;
9900;SDS011;4989;48.772;9.154;2023-03-08T07:35:58;9.90;;;6.63;;
9900;SDS011;4989;48.772;9.154;2023-03-08T07:41:02;10.70;;;6.67;;
9900;SDS011;4989;48.772;9.154;2023-03-08T07:46:04;11.97;;;8.07;;
9900;SDS011;4989;48.772;9.154;2023-03-08T07:51:07;9.80;;;6.60;;
9900;SDS011;4989;48.772;9.154;2023-03-08T07:56:11;11.57;;;6.80;;
9900;SDS011;4989;48.772;9.154;2023-03-08T08:01:13;11.27;;;6.57;;
9900;SDS011;4989;48.772;9.154;2023-03-08T08:06:17;7.37;;;5.50;;
9900;SDS011;4989;48.772;9.154;2023-03-08T08:11:20;8.37;;;5.93;;
9900;SDS011;4989;48.772;9.154;2023-03-08T08:16:23;10.43;;;5.93;;
9900;SDS011;4989;48.772;9.154;2023-03-08T08:21:26;8.93;;;5.67;;
9900;SDS011;4989;48.772;9.154;2023-03-08T08:26:28;12.27;;;5.33;;
9900;SDS011;4989;48.772;9.154;2023-03-08T08:31:34;7.00;;;5.50;;
9900;SDS011;4989;48.772;9.154;2023-03-08T08:36:36;6.13;;;5.00;;
9900;SDS011;4989;48.772;9.154;2023-03-08T08:41:39;10.93;;;5.60;;
9900;SDS011;4989;48.772;9.154;2023-03-08T08:46:41;7.93;;;5.40;;
9900;SDS011;4989;48.772;9.154;2023-03-08T08:51:44;6.77;;;5.50;;
9900;SDS011;4989;48.772;9.154;2023-03-08T08:56:46;8.40;;;5.60;;
9900;SDS011;4989;48.772;9.154;2023-03-08T09:01:49;8.53;;;5.57;;
9900;SDS011;4989;48.772;9.154;2023-03-08T09:06:51;7.77;;;5.87;;
9900;SDS011;4989;48.772;9.154;2023-03-08T09:11:54;8.50;;;5.77;;
9900;SDS011;4989;48.772;9.154;2023-03-08T09:16:56;9.47;;;5.93;;
9900;SDS011;4989;48.772;9.154;2023-03-08T09:21:58;11.17;;;6.33;;
9900;SDS011;4989;48.772;9.154;2023-03-08T09:27:00;8.67;;;6.07;;
9900;SDS011;4989;48.772;9.154;2023-03-08T09:32:06;8.83;;;5.80;;
9900;SDS011;4989;48.772;9.154;2023-03-08T09:37:10;12.03;;;8.27;;
9900;SDS011;4989;48.772;9.154;2023-03-08T09:42:31;9.57;;;6.63;;
9900;SDS011;4989;48.772;9.154;2023-03-08T09:47:40;9.73;;;6.47;;
9900;SDS011;4989;48.772;9.154;2023-03-08T10:09:56;7.03;;;5.33;;
9900;SDS011;4989;48.772;9.154;2023-03-08T10:14:44;6.47;;;4.87;;
9900;SDS011;4989;48.772;9.154;2023-03-08T10:19:52;5.43;;;4.17;;
9900;SDS011;4989;48.772;9.154;2023-03-08T10:25:13;4.93;;;3.97;;
9900;SDS011;4989;48.772;9.154;2023-03-08T10:30:32;4.97;;;3.83;;
9900;SDS011;4989;48.772;9.154;2023-03-08T10:41:15;3.30;;;3.00;;
9900;SDS011;4989;48.772;9.154;2023-03-08T10:46:19;3.90;;;2.90;;
9900;SDS011;4989;48.772;9.154;2023-03-08T10:51:28;3.03;;;2.60;;
9900;SDS011;4989;48.772;9.154;2023-03-08T11:01:46;2.70;;;2.13;;
9900;SDS011;4989;48.772;9.154;2023-03-08T11:06:53;4.40;;;2.60;;
9900;SDS011;4989;48.772;9.154;2023-03-08T11:11:56;1.70;;;1.60;;
9900;SDS011;4989;48.772;9.154;2023-03-08T11:17:02;1.17;;;1.10;;
9900;SDS011;4989;48.772;9.154;2023-03-08T11:22:20;1.20;;;1.10;;
9900;SDS011;4989;48.772;9.154;2023-03-08T11:32:54;2.07;;;1.27;;
9900;SDS011;4989;48.772;9.154;2023-03-08T11:49:12;1.20;;;1.10;;
9900;SDS011;4989;48.772;9.154;2023-03-08T12:05:29;2.53;;;0.90;;
9900;SDS011;4989;48.772;9.154;2023-03-08T12:10:54;1.03;;;0.97;;
9900;SDS011;4989;48.772;9.154;2023-03-08T12:21:21;0.90;;;0.90;;
9900;SDS011;4989;48.772;9.154;2023-03-08T12:26:42;0.80;;;0.80;;
9900;SDS011;4989;48.772;9.154;2023-03-08T12:31:56;2.87;;;1.10;;
9900;SDS011;4989;48.772;9.154;2023-03-08T12:37:00;1.00;;;1.00;;
9900;SDS011;4989;48.772;9.154;2023-03-08T12:57:20;1.57;;;1.40;;
9900;SDS011;4989;48.772;9.154;2023-03-08T13:02:28;0.93;;;0.90;;
9900;SDS011;4989;48.772;9.154;2023-03-08T13:07:38;0.80;;;0.80;;
9900;SDS011;4989;48.772;9.154;2023-03-08T13:18:31;0.83;;;0.83;;
9900;SDS011;4989;48.772;9.154;2023-03-08T13:28:44;0.90;;;0.80;;
9900;SDS011;4989;48.772;9.154;2023-03-08T13:33:52;0.70;;;0.70;;
9900;SDS011;4989;48.772;9.154;2023-03-08T13:38:59;0.70;;;0.70;;
9900;SDS011;4989;48.772;9.154;2023-03-08T13:44:03;0.90;;;0.90;;
9900;SDS011;4989;48.772;9.154;2023-03-08T13:49:25;0.80;;;0.80;;
9900;SDS011;4989;48.772;9.154;2023-03-08T13:54:34;1.77;;;1.00;;
9900;SDS011;4989;48.772;9.154;2023-03-08T13:59:47;0.87;;;0.67;;
9900;SDS011;4989;48.772;9.154;2023-03-08T14:04:54;0.87;;;0.87;;
9900;SDS011;4989;48.772;9.154;2023-03-08T14:09:57;0.70;;;0.70;;
9900;SDS011;4989;48.772;9.154;2023-03-08T14:15:00;0.70;;;0.70;;
9900;SDS011;4989;48.772;9.154;2023-03-08T14:20:16;0.40;;;0.40;;
9900;SDS011;4989;48.772;9.154;2023-03-08T14:25:27;2.53;;;0.70;;
9900;SDS011;4989;48.772;9.154;2023-03-08T14:30:33;1.03;;;0.60;;
9900;SDS011;4989;48.772;9.154;2023-03-08T14:35:35;1.37;;;0.80;;
9900;SDS011;4989;48.772;9.154;2023-03-08T14:40:45;0.50;;;0.50;;
9900;SDS011;4989;48.772;9.154;2023-03-08T14:45:56;0.60;;;0.60;;
9900;SDS011;4989;48.772;9.154;2023-03-08T14:51:04;1.60;;;0.50;;
9900;SDS011;4989;48.772;9.154;2023-03-08T14:56:27;0.20;;;0.20;;
9900;SDS011;4989;48.772;9.154;2023-03-08T15:01:33;0.57;;;0.40;;
9900;SDS011;4989;48.772;9.154;2023-03-08T15:06:38;0.40;;;0.40;;
9900;SDS011;4989;48.772;9.154;2023-03-08T15:11:41;0.43;;;0.43;;
9900;SDS011;4989;48.772;9.154;2023-03-08T15:16:45;1.10;;;0.53;;
9900;SDS011;4989;48.772;9.154;2023-03-08T15:21:48;1.50;;;0.70;;
9900;SDS011;4989;48.772;9.154;2023-03-08T15:26:50;0.50;;;0.50;;
9900;SDS011;4989;48.772;9.154;2023-03-08T15:31:53;0.43;;;0.43;;
9900;SDS011;4989;48.772;9.154;2023-03-08T15:36:56;0.70;;;0.70;;
9900;SDS011;4989;48.772;9.154;2023-03-08T15:41:59;0.97;;;0.57;;
9900;SDS011;4989;48.772;9.154;2023-03-08T15:47:01;1.10;;;0.67;;
9900;SDS011;4989;48.772;9.154;2023-03-08T15:52:03;0.73;;;0.73;;
9900;SDS011;4989;48.772;9.154;2023-03-08T15:57:09;0.60;;;0.60;;
9900;SDS011;4989;48.772;9.154;2023-03-08T16:02:14;1.13;;;0.70;;
9900;SDS011;4989;48.772;9.154;2023-03-08T16:07:18;0.97;;;0.70;;
9900;SDS011;4989;48.772;9.154;2023-03-08T16:12:21;0.60;;;0.60;;
9900;SDS011;4989;48.772;9.154;2023-03-08T16:17:24;0.70;;;0.70;;
9900;SDS011;4989;48.772;9.154;2023-03-08T16:22:29;0.47;;;0.47;;
9900;SDS011;4989;48.772;9.154;2023-03-08T16:27:31;0.70;;;0.67;;
9900;SDS011;4989;48.772;9.154;2023-03-08T16:32:36;2.20;;;0.70;;
9900;SDS011;4989;48.772;9.154;2023-03-08T16:37:39;0.50;;;0.50;;
9900;SDS011;4989;48.772;9.154;2023-03-08T16:42:41;0.57;;;0.50;;
9900;SDS011;4989;48.772;9.154;2023-03-08T16:47:43;1.20;;;0.50;;
9900;SDS011;4989;48.772;9.154;2023-03-08T16:52:46;0.43;;;0.43;;
9900;SDS011;4989;48.772;9.154;2023-03-08T16:57:48;0.40;;;0.40;;
9900;SDS011;4989;48.772;9.154;2023-03-08T17:02:51;0.50;;;0.50;;
9900;SDS011;4989;48.772;9.154;2023-03-08T17:07:53;0.43;;;0.43;;
9900;SDS011;4989;48.772;9.154;2023-03-08T17:12:55;0.60;;;0.50;;
9900;SDS011;4989;48.772;9.154;2023-03-08T17:17:58;0.47;;;0.47;;
9900;SDS011;4989;48.772;9.154;2023-03-08T17:23:00;0.50;;;0.50;;
9900;SDS011;4989;48.772;9.154;2023-03-08T17:28:03;3.03;;;0.90;;
9900;SDS011;4989;48.772;9.154;2023-03-08T17:33:07;0.40;;;0.40;;
9900;SDS011;4989;48.772;9.154;2023-03-08T17:38:10;1.67;;;0.80;;
9900;SDS011;4989;48.772;9.154;2023-03-08T17:43:12;1.33;;;0.63;;
9900;SDS011;4989;48.772;9.154;2023-03-08T17:48:15;0.57;;;0.57;;
9900;SDS011;4989;48.772;9.154;2023-03-08T17:53:17;0.73;;;0.73;;
9900;SDS011;4989;48.772;9.154;2023-03-08T17:58:20;0.53;;;0.53;;
9900;SDS011;4989;48.772;9.154;2023-03-08T18:03:22;0.50;;;0.50;;
9900;SDS011;4989;48.772;9.154;2023-03-08T18:08:25;0.93;;;0.60;;
9900;SDS011;4989;48.772;9.154;2023-03-08T18:13:27;0.60;;;0.60;;
9900;SDS011;4989;48.772;9.154;2023-03-08T18:18:29;0.77;;;0.77;;
9900;SDS011;4989;48.772;9.154;2023-03-08T18:23:31;0.90;;;0.90;;
9900;SDS011;4989;48.772;9.154;2023-03-08T18:28:33;0.90;;;0.70;;
9900;SDS011;4989;48.772;9.154;2023-03-08T18:33:36;0.90;;;0.90;;
9900;SDS011;4989;48.772;9.154;2023-03-08T18:38:40;1.47;;;1.10;;
9900;SDS011;4989;48.772;9.154;2023-03-08T18:43:43;0.80;;;0.80;;
9900;SDS011;4989;48.772;9.154;2023-03-08T18:48:45;0.83;;;0.70;;
9900;SDS011;4989;48.772;9.154;2023-03-08T18:53:52;0.93;;;0.93;;
9900;SDS011;4989;48.772;9.154;2023-03-08T18:58:57;1.20;;;0.90;;
9900;SDS011;4989;48.772;9.154;2023-03-08T19:04:02;1.73;;;0.67;;
9900;SDS011;4989;48.772;9.154;2023-03-08T19:09:07;1.17;;;1.07;;
9900;SDS011;4989;48.772;9.154;2023-03-08T19:14:15;1.60;;;1.50;;
9900;SDS011;4989;48.772;9.154;2023-03-08T19:19:17;0.97;;;0.97;;
9900;SDS011;4989;48.772;9.154;2023-03-08T19:24:20;0.60;;;0.60;;
9900;SDS011;4989;48.772;9.154;2023-03-08T19:29:26;0.60;;;0.60;;
9900;SDS011;4989;48.772;9.154;2023-03-08T19:34:35;0.67;;;0.60;;
9900;SDS011;4989;48.772;9.154;2023-03-08T19:39:41;1.07;;;0.70;;
9900;SDS011;4989;48.772;9.154;2023-03-08T19:44:45;0.80;;;0.80;;
9900;SDS011;4989;48.772;9.154;2023-03-08T19:49:49;0.60;;;0.60;;
9900;SDS011;4989;48.772;9.154;2023-03-08T19:54:51;0.70;;;0.70;;
9900;SDS011;4989;48.772;9.154;2023-03-08T19:59:54;0.73;;;0.73;;
9900;SDS011;4989;48.772;9.154;2023-03-08T20:04:58;1.37;;;0.80;;
9900;SDS011;4989;48.772;9.154;2023-03-08T20:10:01;1.00;;;0.70;;
9900;SDS011;4989;48.772;9.154;2023-03-08T20:15:16;2.70;;;1.00;;
9900;SDS011;4989;48.772;9.154;2023-03-08T20:20:18;1.33;;;1.20;;
9900;SDS011;4989;48.772;9.154;2023-03-08T20:25:21;1.73;;;0.90;;
9900;SDS011;4989;48.772;9.154;2023-03-08T20:30:23;1.00;;;1.00;;
9900;SDS011;4989;48.772;9.154;2023-03-08T20:35:26;0.97;;;0.97;;
9900;SDS011;4989;48.772;9.154;2023-03-08T20:40:29;1.20;;;1.10;;
9900;SDS011;4989;48.772;9.154;2023-03-08T20:45:31;1.23;;;1.13;;
9900;SDS011;4989;48.772;9.154;2023-03-08T20:50:34;1.00;;;1.00;;
9900;SDS011;4989;48.772;9.154;2023-03-08T20:55:37;1.20;;;1.10;;
9900;SDS011;4989;48.772;9.154;2023-03-08T21:00:40;0.60;;;0.60;;
9900;SDS011;4989;48.772;9.154;2023-03-08T21:05:42;1.33;;;0.90;;
9900;SDS011;4989;48.772;9.154;2023-03-08T21:10:45;1.17;;;0.70;;
9900;SDS011;4989;48.772;9.154;2023-03-08T21:15:47;0.70;;;0.70;;
9900;SDS011;4989;48.772;9.154;2023-03-08T21:20:50;0.90;;;0.90;;
9900;SDS011;4989;48.772;9.154;2023-03-08T21:25:52;1.90;;;0.90;;
9900;SDS011;4989;48.772;9.154;2023-03-08T21:30:57;1.40;;;1.00;;
9900;SDS011;4989;48.772;9.154;2023-03-08T21:35:59;0.80;;;0.80;;
9900;SDS011;4989;48.772;9.154;2023-03-08T21:41:01;3.57;;;1.10;;
9900;SDS011;4989;48.772;9.154;2023-03-08T21:46:04;1.17;;;0.93;;
9900;SDS011;4989;48.772;9.154;2023-03-08T21:51:06;1.03;;;0.70;;
9900;SDS011;4989;48.772;9.154;2023-03-08T21:56:10;1.47;;;0.80;;
9900;SDS011;4989;48.772;9.154;2023-03-08T22:01:16;2.30;;;0.90;;
9900;SDS011;4989;48.772;9.154;2023-03-08T22:06:24;1.17;;;0.80;;
9900;SDS011;4989;48.772;9.154;2023-03-08T22:11:27;1.27;;;0.83;;
9900;SDS011;4989;48.772;9.154;2023-03-08T22:16:30;1.73;;;1.10;;
9900;SDS011;4989;48.772;9.154;2023-03-08T22:21:34;3.70;;;1.00;;
9900;SDS011;4989;48.772;9.154;2023-03-08T22:26:36;1.97;;;0.90;;
9900;SDS011;4989;48.772;9.154;2023-03-08T22:31:39;0.80;;;0.80;;
9900;SDS011;4989;48.772;9.154;2023-03-08T22:36:42;2.13;;;1.30;;
9900;SDS011;4989;48.772;9.154;2023-03-08T22:41:44;0.87;;;0.73;;
9900;SDS011;4989;48.772;9.154;2023-03-08T22:46:47;1.00;;;0.80;;
9900;SDS011;4989;48.772;9.154;2023-03-08T22:51:49;1.23;;;0.80;;
9900;SDS011;4989;48.772;9.154;2023-03-08T22:56:52;1.10;;;1.00;;
9900;SDS011;4989;48.772;9.154;2023-03-08T23:01:55;2.07;;;0.83;;
9900;SDS011;4989;48.772;9.154;2023-03-08T23:06:57;2.00;;;1.30;;
9900;SDS011;4989;48.772;9.154;2023-03-08T23:11:59;2.07;;;1.50;;
9900;SDS011;4989;48.772;9.154;2023-03-08T23:17:05;1.53;;;1.43;;
9900;SDS011;4989;48.772;9.154;2023-03-08T23:22:07;2.73;;;1.47;;
9900;SDS011;4989;48.772;9.154;2023-03-08T23:27:09;2.40;;;1.30;;
9900;SDS011;4989;48.772;9.154;2023-03-08T23:32:12;3.57;;;1.07;;
9900;SDS011;4989;48.772;9.154;2023-03-08T23:37:14;2.60;;;1.00;;
9900;SDS011;4989;48.772;9.154;2023-03-08T23:42:16;1.90;;;0.80;;
9900;SDS011;4989;48.772;9.154;2023-03-08T23:47:18;1.23;;;0.80;;
9900;SDS011;4989;48.772;9.154;2023-03-08T23:52:20;1.40;;;1.20;;
9900;SDS011;4989;48.772;9.154;2023-03-08T23:57:22;1.43;;;1.00;;
